Time;durP1;ratioP1;P1;durP2;ratioP2;P2;SDS_P1;SDS_P2;PMS_P1;PMS_P2;Temp;Humidity;BMP_temperature;BMP_pressure;BME280_temperature;BME280_humidity;BME280_pressure;Samples;Min_cycle;Max_cycle;Signal;HPM_P1;HPM_P2
2024/01/02 00:00:06;;;;;;;9.47;1.43;;;9.20;99.90;;;;;;5134644;28;20506;-68
2024/01/02 00:02:33;;;;;;;5.27;1.40;;;9.20;99.90;;;;;;5135144;28;20434;-67
2024/01/02 00:05:02;;;;;;;6.80;1.70;;;9.20;99.90;;;;;;5134267;28;20484;-67
2024/01/02 00:07:28;;;;;;;4.83;1.43;;;9.30;99.90;;;;;;5134684;28;20502;-67
2024/01/02 00:09:55;;;;;;;8.20;1.33;;;9.20;99.90;;;;;;5134477;28;20464;-67
2024/01/02 00:12:22;;;;;;;4.93;1.33;;;9.30;99.90;;;;;;5134488;28;20442;-67
2024/01/02 00:14:48;;;;;;;3.17;1.40;;;9.30;99.90;;;;;;5134495;28;20442;-67
2024/01/02 00:17:16;;;;;;;4.63;1.30;;;9.30;99.90;;;;;;5134444;28;20481;-67
2024/01/02 00:19:42;;;;;;;4.87;1.23;;;9.30;99.90;;;;;;5134351;28;20454;-67
2024/01/02 00:22:11;;;;;;;3.27;1.10;;;9.30;99.90;;;;;;5117080;28;20445;-67
2024/01/02 00:24:38;;;;;;;15.63;2.43;;;9.30;99.90;;;;;;5134333;28;20446;-67
2024/01/02 00:27:05;;;;;;;3.30;1.40;;;9.30;99.90;;;;;;5134636;28;20469;-67
2024/01/02 00:29:32;;;;;;;3.93;1.07;;;9.20;99.90;;;;;;5134632;28;20466;-67
2024/01/02 00:31:59;;;;;;;4.43;1.60;;;9.20;99.90;;;;;;5134825;28;20529;-67
2024/01/02 00:34:25;;;;;;;3.77;1.03;;;9.20;99.90;;;;;;5115899;28;20446;-67
2024/01/02 00:36:52;;;;;;;6.53;1.27;;;9.20;99.90;;;;;;5134553;28;20485;-67
2024/01/02 00:39:20;;;;;;;4.77;1.37;;;9.20;99.90;;;;;;5134020;28;20469;-67
2024/01/02 00:41:49;;;;;;;9.00;1.23;;;9.20;99.90;;;;;;5134162;28;20441;-67
2024/01/02 00:44:16;;;;;;;5.33;0.97;;;9.20;99.90;;;;;;5134152;28;21044;-67
2024/01/02 00:46:43;;;;;;;2.90;1.07;;;9.20;99.90;;;;;;5133656;28;20434;-66
2024/01/02 00:49:10;;;;;;;2.47;0.83;;;9.20;99.90;;;;;;5134700;28;20449;-66
2024/01/02 00:51:36;;;;;;;2.60;0.90;;;9.20;99.90;;;;;;5137613;28;20446;-66
2024/01/02 00:54:03;;;;;;;6.53;0.90;;;9.20;99.90;;;;;;5138258;28;20465;-66
2024/01/02 00:56:31;;;;;;;4.03;1.23;;;9.20;99.90;;;;;;5119916;27;20485;-67
2024/01/02 00:58:58;;;;;;;1.67;1.10;;;9.10;99.90;;;;;;5138663;27;20449;-66
2024/01/02 01:01:25;;;;;;;3.40;1.03;;;9.10;99.90;;;;;;5138721;27;20442;-67
2024/01/02 01:03:52;;;;;;;1.93;0.70;;;9.10;99.90;;;;;;5138564;27;20445;-67
2024/01/02 01:06:19;;;;;;;2.13;0.83;;;9.10;99.90;;;;;;5137431;27;20441;-67
2024/01/02 01:08:46;;;;;;;2.70;0.90;;;9.00;99.90;;;;;;5137679;27;20442;-67
2024/01/02 01:11:13;;;;;;;3.80;1.00;;;9.00;99.90;;;;;;5137910;27;20549;-66
2024/01/02 01:13:41;;;;;;;3.30;1.00;;;9.10;99.90;;;;;;5138084;27;20520;-67
2024/01/02 01:16:08;;;;;;;11.77;4.67;;;9.10;99.90;;;;;;5137570;27;20477;-66
2024/01/02 01:18:35;;;;;;;5.70;2.77;;;9.00;99.90;;;;;;5137715;27;20445;-66
2024/01/02 01:21:02;;;;;;;4.20;1.73;;;9.10;99.90;;;;;;5137100;27;20462;-66
2024/01/02 01:23:29;;;;;;;2.27;1.00;;;9.10;99.90;;;;;;5136907;27;20532;-66
2024/01/02 01:25:55;;;;;;;1.83;1.30;;;9.10;99.90;;;;;;5137191;27;20445;-66
2024/01/02 01:28:22;;;;;;;2.50;1.07;;;9.10;99.90;;;;;;5136957;27;20446;-66
2024/01/02 01:30:50;;;;;;;2.27;0.97;;;9.10;99.90;;;;;;5118798;27;20454;-66
2024/01/02 01:33:17;;;;;;;3.07;0.90;;;9.20;99.90;;;;;;5118283;27;20469;-66
2024/01/02 01:35:44;;;;;;;1.80;0.80;;;9.20;99.90;;;;;;5136435;27;20531;-66
2024/01/02 01:38:13;;;;;;;2.00;0.87;;;9.20;99.90;;;;;;5136788;27;20481;-67
2024/01/02 01:40:40;;;;;;;2.30;0.77;;;9.20;99.90;;;;;;5136366;27;20465;-67
2024/01/02 01:43:12;;;;;;;1.80;0.83;;;9.10;99.90;;;;;;5136478;27;20946;-67
2024/01/02 01:45:39;;;;;;;2.07;0.87;;;9.10;99.90;;;;;;5136389;27;20456;-66
2024/01/02 01:48:09;;;;;;;1.77;0.50;;;9.20;99.90;;;;;;5136597;27;20442;-66
2024/01/02 01:50:37;;;;;;;0.80;0.50;;;9.20;99.90;;;;;;5136055;27;20990;-66
2024/01/02 01:53:05;;;;;;;2.07;0.50;;;9.20;99.90;;;;;;5136516;27;20445;-66
2024/01/02 01:55:32;;;;;;;1.10;0.80;;;9.20;99.90;;;;;;5136106;27;20446;-66
2024/01/02 01:57:59;;;;;;;0.77;0.40;;;9.20;99.90;;;;;;5136388;27;20465;-66
2024/01/02 02:00:27;;;;;;;1.70;0.50;;;9.10;99.90;;;;;;5136321;27;20458;-66
2024/01/02 02:02:54;;;;;;;1.00;0.50;;;9.10;99.90;;;;;;5136379;27;20446;-66
2024/01/02 02:05:25;;;;;;;1.60;0.40;;;9.00;99.90;;;;;;5136163;27;20438;-66
2024/01/02 02:07:53;;;;;;;1.33;0.60;;;9.00;99.90;;;;;;5136076;27;20426;-66
2024/01/02 02:10:20;;;;;;;0.47;0.37;;;9.00;99.90;;;;;;5134833;27;20967;-66
2024/01/02 02:12:47;;;;;;;0.87;0.30;;;8.90;99.90;;;;;;5136400;27;20445;-66
2024/01/02 02:15:14;;;;;;;0.60;0.30;;;9.00;99.90;;;;;;5117833;27;20437;-67
2024/01/02 02:17:41;;;;;;;0.90;0.30;;;8.90;99.90;;;;;;5136045;27;20848;-66
2024/01/02 02:20:08;;;;;;;2.97;0.30;;;8.80;99.90;;;;;;5135781;27;20461;-66
2024/01/02 02:22:39;;;;;;;1.07;0.40;;;8.80;99.90;;;;;;5135865;27;20441;-66
2024/01/02 02:25:08;;;;;;;0.40;0.30;;;8.70;99.90;;;;;;5135535;27;20429;-66
2024/01/02 02:27:37;;;;;;;1.50;0.47;;;8.70;99.90;;;;;;5117715;27;20430;-66
2024/01/02 02:30:04;;;;;;;0.50;0.40;;;8.70;99.90;;;;;;5136410;27;20462;-66
2024/01/02 02:32:30;;;;;;;0.40;0.30;;;8.70;99.90;;;;;;5135366;27;20954;-66
2024/01/02 02:34:57;;;;;;;0.40;0.30;;;8.70;99.90;;;;;;5135709;27;20442;-66
2024/01/02 02:37:24;;;;;;;0.40;0.30;;;8.60;99.90;;;;;;5135430;27;20489;-66
2024/01/02 02:39:51;;;;;;;0.40;0.30;;;8.60;99.90;;;;;;5135042;27;20462;-66
2024/01/02 02:42:19;;;;;;;0.47;0.37;;;8.60;99.90;;;;;;5135475;27;20439;-66
2024/01/02 02:44:45;;;;;;;1.90;0.30;;;8.60;99.90;;;;;;5135408;27;20444;-66
2024/01/02 02:47:12;;;;;;;1.50;0.30;;;8.60;99.90;;;;;;5135205;27;20438;-66
2024/01/02 02:49:39;;;;;;;0.57;0.30;;;8.50;99.90;;;;;;5135359;27;20465;-66
2024/01/02 02:52:06;;;;;;;1.27;0.20;;;8.50;99.90;;;;;;5135482;27;20445;-66
2024/01/02 02:54:33;;;;;;;0.40;0.30;;;8.50;99.90;;;;;;5135062;27;20442;-66
2024/01/02 02:57:00;;;;;;;0.90;0.40;;;8.60;99.90;;;;;;5134949;27;20481;-66
2024/01/02 02:59:28;;;;;;;0.80;0.30;;;8.60;99.90;;;;;;5134765;27;20458;-66
2024/01/02 03:01:55;;;;;;;0.87;0.30;;;8.60;99.90;;;;;;5139735;27;20440;-66
2024/01/02 03:04:22;;;;;;;0.40;0.30;;;8.60;99.90;;;;;;5141804;27;20515;-66
2024/01/02 03:06:49;;;;;;;0.50;0.40;;;8.60;99.90;;;;;;5138026;27;20434;-66
2024/01/02 03:09:16;;;;;;;0.50;0.40;;;8.60;99.90;;;;;;5136668;27;20466;-67
2024/01/02 03:11:44;;;;;;;0.87;0.40;;;8.70;99.90;;;;;;5136804;27;20450;-66
2024/01/02 03:14:10;;;;;;;0.93;0.53;;;8.70;99.90;;;;;;5135336;27;20450;-66
2024/01/02 03:16:39;;;;;;;0.60;0.30;;;8.70;99.90;;;;;;5135303;27;20449;-66
2024/01/02 03:19:05;;;;;;;0.83;0.27;;;8.60;99.90;;;;;;5134737;27;20960;-66
2024/01/02 03:21:32;;;;;;;0.30;0.30;;;8.60;99.90;;;;;;5134998;27;20449;-66
2024/01/02 03:24:02;;;;;;;0.40;0.30;;;8.60;99.90;;;;;;5135288;27;20445;-66
2024/01/02 03:26:29;;;;;;;1.63;0.30;;;8.60;99.90;;;;;;5134892;27;20502;-66
2024/01/02 03:28:55;;;;;;;0.40;0.40;;;8.60;99.90;;;;;;5134689;27;20442;-66
2024/01/02 03:31:22;;;;;;;0.30;0.30;;;8.60;99.90;;;;;;5135050;27;20444;-66
2024/01/02 03:33:50;;;;;;;0.40;0.30;;;8.60;99.90;;;;;;5134749;27;20502;-66
2024/01/02 03:36:18;;;;;;;0.87;0.30;;;8.60;99.90;;;;;;5116063;27;20962;-66
2024/01/02 03:38:45;;;;;;;0.50;0.40;;;8.60;99.90;;;;;;5134631;27;20564;-66
2024/01/02 03:41:12;;;;;;;1.80;0.40;;;8.60;99.90;;;;;;5134554;27;20895;-66
2024/01/02 03:43:39;;;;;;;1.43;0.50;;;8.60;99.90;;;;;;5135231;27;20916;-66
2024/01/02 03:46:06;;;;;;;1.23;0.30;;;8.60;99.90;;;;;;5135352;27;20434;-66
2024/01/02 03:48:33;;;;;;;0.50;0.40;;;8.60;99.90;;;;;;5135766;27;20816;-67
2024/01/02 03:51:02;;;;;;;0.40;0.20;;;8.60;99.90;;;;;;5144419;28;20453;-67
2024/01/02 03:53:29;;;;;;;1.60;0.43;;;8.60;99.90;;;;;;5145752;28;20434;-66
2024/01/02 03:55:55;;;;;;;0.77;0.30;;;8.70;99.90;;;;;;5143057;28;20450;-67
2024/01/02 03:58:22;;;;;;;0.97;0.43;;;8.70;99.90;;;;;;5124503;28;20481;-67
2024/01/02 04:00:51;;;;;;;0.30;0.20;;;8.60;99.90;;;;;;5141310;28;20466;-67
2024/01/02 04:03:18;;;;;;;0.80;0.20;;;8.60;99.90;;;;;;5140715;28;20790;-67
2024/01/02 04:05:44;;;;;;;0.50;0.30;;;8.60;99.90;;;;;;5139510;28;20449;-67
2024/01/02 04:08:13;;;;;;;0.90;0.30;;;8.60;99.90;;;;;;5138810;28;20787;-67
2024/01/02 04:10:40;;;;;;;1.33;0.40;;;8.70;99.90;;;;;;5137643;28;20978;-67
2024/01/02 04:13:09;;;;;;;0.30;0.30;;;8.80;99.90;;;;;;5138169;28;20446;-67
2024/01/02 04:15:36;;;;;;;0.40;0.20;;;8.80;99.90;;;;;;5137383;28;20481;-67
2024/01/02 04:18:03;;;;;;;0.50;0.30;;;8.80;99.90;;;;;;5118833;28;20998;-67
2024/01/02 04:20:29;;;;;;;1.17;0.40;;;8.80;99.90;;;;;;5137013;28;20490;-67
2024/01/02 04:22:57;;;;;;;2.73;0.40;;;8.70;99.90;;;;;;5118462;28;20441;-67
2024/01/02 04:25:25;;;;;;;0.50;0.37;;;8.70;99.90;;;;;;5136034;28;20442;-67
2024/01/02 04:27:54;;;;;;;0.60;0.30;;;8.80;99.90;;;;;;5136702;28;20438;-67
2024/01/02 04:30:21;;;;;;;0.70;0.43;;;8.80;99.90;;;;;;5135131;28;20461;-67
2024/01/02 04:32:48;;;;;;;0.80;0.37;;;8.80;99.90;;;;;;5136927;27;20441;-67
2024/01/02 04:35:15;;;;;;;0.70;0.30;;;8.90;99.90;;;;;;5138505;27;20446;-67
2024/01/02 04:37:42;;;;;;;1.77;0.40;;;8.80;99.90;;;;;;5138375;27;20482;-67
2024/01/02 04:40:11;;;;;;;2.40;0.47;;;8.90;99.90;;;;;;5139250;27;20461;-67
2024/01/02 04:42:39;;;;;;;0.40;0.40;;;8.90;99.90;;;;;;5138775;27;20885;-67
2024/01/02 04:45:07;;;;;;;0.50;0.40;;;8.90;99.90;;;;;;5138117;27;20935;-67
2024/01/02 04:47:34;;;;;;;1.27;0.40;;;8.90;99.90;;;;;;5138661;27;20437;-67
2024/01/02 04:50:01;;;;;;;1.07;0.30;;;9.00;99.90;;;;;;5138506;27;20552;-67
2024/01/02 04:52:29;;;;;;;0.80;0.47;;;9.00;99.90;;;;;;5119980;27;20446;-67
2024/01/02 04:54:56;;;;;;;1.27;0.60;;;9.10;99.90;;;;;;5138022;27;20993;-67
2024/01/02 04:57:23;;;;;;;0.60;0.60;;;9.20;99.90;;;;;;5137748;27;20485;-67
2024/01/02 04:59:51;;;;;;;0.40;0.40;;;9.30;99.90;;;;;;5138434;27;20462;-67
2024/01/02 05:02:22;;;;;;;0.50;0.30;;;9.30;99.90;;;;;;5138376;27;20546;-68
2024/01/02 05:04:49;;;;;;;0.63;0.27;;;9.40;99.90;;;;;;5137994;27;20441;-67
2024/01/02 05:07:16;;;;;;;2.07;0.43;;;9.50;99.90;;;;;;5137509;27;20438;-67
2024/01/02 05:09:43;;;;;;;0.47;0.30;;;9.60;99.90;;;;;;5137608;27;20458;-67
2024/01/02 05:12:10;;;;;;;0.30;0.20;;;9.70;99.90;;;;;;5137599;27;20446;-67
2024/01/02 05:14:37;;;;;;;0.30;0.20;;;9.80;99.90;;;;;;5137815;27;20433;-68
2024/01/02 05:17:06;;;;;;;0.80;0.20;;;9.90;99.90;;;;;;5137565;27;20460;-68
2024/01/02 05:19:33;;;;;;;0.30;0.20;;;10.00;99.90;;;;;;5137797;27;20462;-68
2024/01/02 05:22:00;;;;;;;0.30;0.30;;;10.10;99.90;;;;;;5141190;27;20867;-68
2024/01/02 05:24:27;;;;;;;0.40;0.30;;;10.20;99.90;;;;;;5143662;27;20442;-68
2024/01/02 05:26:54;;;;;;;0.30;0.20;;;10.30;99.90;;;;;;5142122;27;20430;-67
2024/01/02 05:29:20;;;;;;;0.40;0.30;;;10.30;99.90;;;;;;5139062;27;20454;-68
2024/01/02 05:31:47;;;;;;;0.30;0.27;;;10.40;99.90;;;;;;5138488;27;20445;-67
2024/01/02 05:34:15;;;;;;;0.40;0.20;;;10.40;99.90;;;;;;5137938;27;20449;-68
2024/01/02 05:36:43;;;;;;;0.73;0.20;;;10.40;99.90;;;;;;5137356;27;20434;-67
2024/01/02 05:39:10;;;;;;;0.50;0.20;;;10.50;99.90;;;;;;5137524;27;20531;-67
2024/01/02 05:41:37;;;;;;;0.30;0.20;;;10.50;99.90;;;;;;5137750;27;20434;-68
2024/01/02 05:44:04;;;;;;;0.30;0.20;;;10.60;99.90;;;;;;5137521;27;20441;-67
2024/01/02 05:46:30;;;;;;;0.30;0.20;;;10.60;99.90;;;;;;5137541;27;20490;-67
2024/01/02 05:48:57;;;;;;;0.83;0.30;;;10.70;99.90;;;;;;5137393;27;20465;-67
2024/01/02 05:51:25;;;;;;;0.90;0.30;;;10.70;99.90;;;;;;5136954;27;20441;-67
2024/01/02 05:53:52;;;;;;;0.30;0.20;;;10.70;99.90;;;;;;5137015;27;20438;-67
2024/01/02 05:56:19;;;;;;;0.30;0.20;;;10.70;99.90;;;;;;5136466;27;20450;-67
2024/01/02 05:58:45;;;;;;;0.70;0.30;;;10.80;99.90;;;;;;5136537;27;20617;-67
2024/01/02 06:01:12;;;;;;;0.30;0.30;;;10.80;99.90;;;;;;5136525;27;20458;-67
2024/01/02 06:03:39;;;;;;;0.30;0.20;;;10.80;99.90;;;;;;5136581;27;20438;-67
2024/01/02 06:06:06;;;;;;;0.30;0.20;;;10.80;99.90;;;;;;5136661;27;20446;-67
2024/01/02 06:08:35;;;;;;;0.30;0.20;;;10.80;99.90;;;;;;5136291;27;20461;-67
2024/01/02 06:11:01;;;;;;;0.40;0.30;;;10.80;99.90;;;;;;5136345;27;20825;-68
2024/01/02 06:13:29;;;;;;;0.30;0.30;;;10.90;99.90;;;;;;5136685;27;20441;-68
2024/01/02 06:15:56;;;;;;;0.63;0.30;;;10.90;99.90;;;;;;5117892;27;20478;-67
2024/01/02 06:18:22;;;;;;;0.30;0.27;;;10.90;99.90;;;;;;5136096;27;20474;-68
2024/01/02 06:20:49;;;;;;;0.40;0.30;;;11.00;99.90;;;;;;5135674;27;20465;-68
2024/01/02 06:23:16;;;;;;;0.40;0.40;;;11.00;99.90;;;;;;5118415;27;20446;-68
2024/01/02 06:25:45;;;;;;;0.40;0.30;;;11.00;99.90;;;;;;5136093;27;20445;-68
2024/01/02 06:28:12;;;;;;;0.40;0.30;;;11.00;99.90;;;;;;5135569;27;20931;-67
2024/01/02 06:30:38;;;;;;;0.40;0.30;;;11.00;99.90;;;;;;5135748;27;20453;-68
2024/01/02 06:33:05;;;;;;;0.40;0.30;;;11.10;99.90;;;;;;5135844;27;20457;-68
2024/01/02 06:35:32;;;;;;;0.30;0.30;;;11.10;99.90;;;;;;5135764;27;20438;-68
2024/01/02 06:37:58;;;;;;;1.10;0.30;;;11.10;99.90;;;;;;5134749;27;20521;-68
2024/01/02 06:40:25;;;;;;;0.40;0.30;;;11.10;99.90;;;;;;5135476;27;20466;-68
2024/01/02 06:42:54;;;;;;;0.40;0.20;;;11.10;99.90;;;;;;5135361;27;20442;-68
2024/01/02 06:45:21;;;;;;;0.50;0.30;;;11.10;99.90;;;;;;5135583;27;20442;-67
2024/01/02 06:47:47;;;;;;;0.87;0.30;;;11.20;99.90;;;;;;5135547;27;20441;-68
2024/01/02 06:50:14;;;;;;;0.30;0.30;;;11.30;99.90;;;;;;5116747;27;20454;-68
2024/01/02 06:52:41;;;;;;;0.60;0.30;;;11.30;99.90;;;;;;5135358;27;20441;-68
2024/01/02 06:55:08;;;;;;;0.30;0.20;;;11.40;99.90;;;;;;5134906;27;20445;-68
2024/01/02 06:57:35;;;;;;;0.30;0.20;;;11.50;99.90;;;;;;5135078;27;20520;-68
2024/01/02 07:00:05;;;;;;;0.30;0.30;;;11.50;99.90;;;;;;5134726;27;20967;-68
2024/01/02 07:02:33;;;;;;;1.43;0.40;;;11.50;99.90;;;;;;5135296;27;20786;-68
2024/01/02 07:04:59;;;;;;;0.83;0.30;;;11.60;99.90;;;;;;5135396;27;20456;-68
2024/01/02 07:07:26;;;;;;;0.50;0.23;;;11.60;99.90;;;;;;5135160;27;20547;-68
2024/01/02 07:09:53;;;;;;;1.43;0.40;;;11.60;99.90;;;;;;5116353;27;20497;-68
2024/01/02 07:12:20;;;;;;;0.60;0.60;;;11.60;99.90;;;;;;5116862;27;20775;-68
2024/01/02 07:14:47;;;;;;;0.70;0.40;;;11.70;99.90;;;;;;5134646;27;20919;-68
2024/01/02 07:17:19;;;;;;;0.67;0.30;;;11.70;99.90;;;;;;5135066;27;20430;-68
2024/01/02 07:19:46;;;;;;;0.40;0.30;;;11.70;99.90;;;;;;5134739;27;20492;-68
2024/01/02 07:22:14;;;;;;;0.37;0.30;;;11.70;99.90;;;;;;5134866;27;20442;-68
2024/01/02 07:24:41;;;;;;;0.40;0.30;;;11.70;99.90;;;;;;5134511;27;20954;-68
2024/01/02 07:27:08;;;;;;;1.03;0.40;;;11.70;99.90;;;;;;5134788;27;20438;-68
2024/01/02 07:29:35;;;;;;;0.60;0.50;;;11.80;99.90;;;;;;5135108;27;20458;-68
2024/01/02 07:32:01;;;;;;;0.40;0.30;;;11.80;99.90;;;;;;5134735;27;20449;-68
2024/01/02 07:34:29;;;;;;;0.60;0.40;;;11.80;99.90;;;;;;5134231;27;20442;-68
2024/01/02 07:36:56;;;;;;;0.30;0.20;;;11.90;99.90;;;;;;5135400;27;20438;-68
2024/01/02 07:39:23;;;;;;;0.30;0.30;;;11.90;99.90;;;;;;5138535;27;20486;-69
2024/01/02 07:41:50;;;;;;;4.70;0.60;;;11.90;99.90;;;;;;5138940;27;20449;-68
2024/01/02 07:44:17;;;;;;;0.50;0.30;;;11.90;99.90;;;;;;5136914;27;20832;-68
2024/01/02 07:46:44;;;;;;;0.40;0.30;;;11.90;99.90;;;;;;5135520;27;20446;-68
2024/01/02 07:49:11;;;;;;;0.30;0.23;;;12.00;99.90;;;;;;5134866;27;20434;-68
2024/01/02 07:51:39;;;;;;;0.50;0.20;;;12.00;99.90;;;;;;5116585;28;20470;-68
2024/01/02 07:54:06;;;;;;;1.90;1.33;;;12.00;99.90;;;;;;5134435;28;20442;-68
2024/01/02 07:56:33;;;;;;;0.40;0.20;;;12.00;99.90;;;;;;5134518;28;20461;-68
2024/01/02 07:59:00;;;;;;;0.30;0.20;;;12.00;99.90;;;;;;5134035;28;20489;-68
2024/01/02 08:01:27;;;;;;;1.13;0.77;;;11.90;99.90;;;;;;5134397;28;20441;-68
2024/01/02 08:03:54;;;;;;;0.30;0.30;;;11.90;99.90;;;;;;5134725;28;20433;-68
2024/01/02 08:06:21;;;;;;;0.50;0.37;;;11.90;99.90;;;;;;5135576;27;20450;-68
2024/01/02 08:08:49;;;;;;;0.30;0.30;;;11.90;99.90;;;;;;5139249;27;20441;-68
2024/01/02 08:11:16;;;;;;;0.40;0.30;;;11.90;99.90;;;;;;5139428;27;20485;-68
2024/01/02 08:13:42;;;;;;;0.50;0.50;;;11.90;99.90;;;;;;5138661;27;20449;-68
2024/01/02 08:16:09;;;;;;;0.50;0.50;;;11.90;99.90;;;;;;5138456;27;20441;-68
2024/01/02 08:18:41;;;;;;;0.60;0.30;;;11.90;99.90;;;;;;5138444;27;20489;-68
2024/01/02 08:21:08;;;;;;;0.30;0.30;;;11.90;99.90;;;;;;5138521;27;20491;-68
2024/01/02 08:23:35;;;;;;;0.67;0.50;;;11.90;99.90;;;;;;5120158;27;20494;-68
2024/01/02 08:26:03;;;;;;;0.43;0.43;;;12.00;99.90;;;;;;5138478;27;20478;-68
2024/01/02 08:28:30;;;;;;;0.87;0.50;;;12.00;99.90;;;;;;5138714;27;20442;-68
2024/01/02 08:30:57;;;;;;;1.27;0.73;;;12.00;99.90;;;;;;5138005;27;20865;-68
2024/01/02 08:33:24;;;;;;;0.60;0.60;;;12.10;99.90;;;;;;5138055;27;20441;-68
2024/01/02 08:35:51;;;;;;;0.70;0.60;;;12.10;99.90;;;;;;5137884;27;20465;-68
2024/01/02 08:38:18;;;;;;;0.80;0.70;;;12.10;99.90;;;;;;5138395;27;20618;-68
2024/01/02 08:40:45;;;;;;;0.87;0.60;;;12.20;99.90;;;;;;5137901;27;20989;-68
2024/01/02 08:43:13;;;;;;;0.53;0.53;;;12.20;99.90;;;;;;5138631;27;20529;-68
2024/01/02 08:45:40;;;;;;;1.53;0.67;;;12.20;99.90;;;;;;5137996;27;20448;-68
2024/01/02 08:48:10;;;;;;;0.77;0.40;;;12.30;99.90;;;;;;5138229;27;20442;-69
2024/01/02 08:50:37;;;;;;;0.50;0.40;;;12.30;99.90;;;;;;5137939;27;20450;-68
2024/01/02 08:53:04;;;;;;;0.60;0.47;;;12.30;99.90;;;;;;5137911;27;20445;-69
2024/01/02 08:55:31;;;;;;;0.47;0.47;;;12.30;99.90;;;;;;5137708;27;20433;-69
2024/01/02 08:57:57;;;;;;;1.73;0.40;;;12.40;99.90;;;;;;5138547;27;20426;-68
2024/01/02 09:00:26;;;;;;;0.83;0.33;;;12.40;99.90;;;;;;5137580;27;20481;-69
2024/01/02 09:02:52;;;;;;;2.63;0.30;;;12.40;99.90;;;;;;5137516;27;20442;-69
2024/01/02 09:05:19;;;;;;;0.60;0.40;;;12.50;99.90;;;;;;5137433;27;20444;-69
2024/01/02 09:07:46;;;;;;;0.40;0.40;;;12.50;99.90;;;;;;5136946;27;20939;-68
2024/01/02 09:10:13;;;;;;;0.43;0.40;;;12.50;99.90;;;;;;5137452;27;20453;-69
2024/01/02 09:12:40;;;;;;;0.50;0.40;;;12.50;99.90;;;;;;5137417;27;20476;-69
2024/01/02 09:15:08;;;;;;;0.50;0.50;;;12.60;99.90;;;;;;5137511;27;20478;-69
2024/01/02 09:17:36;;;;;;;0.70;0.50;;;12.60;99.90;;;;;;5136800;27;20491;-69
2024/01/02 09:20:04;;;;;;;1.00;0.90;;;12.60;99.90;;;;;;5136875;27;20490;-68
2024/01/02 09:22:31;;;;;;;1.70;1.60;;;12.60;99.90;;;;;;5137191;27;20442;-69
2024/01/02 09:25:00;;;;;;;1.53;1.07;;;12.60;99.90;;;;;;5136756;27;20449;-69
2024/01/02 09:27:29;;;;;;;0.90;0.90;;;12.70;99.90;;;;;;5137183;27;20442;-69
2024/01/02 09:29:56;;;;;;;0.40;0.30;;;12.70;99.90;;;;;;5136583;27;20837;-69
2024/01/02 09:32:23;;;;;;;0.50;0.50;;;12.70;99.90;;;;;;5136921;27;20448;-69
2024/01/02 09:34:51;;;;;;;1.07;0.40;;;12.70;99.90;;;;;;5135340;27;20437;-69
2024/01/02 09:37:18;;;;;;;0.40;0.30;;;12.80;99.90;;;;;;5136572;27;20441;-69
2024/01/02 09:39:45;;;;;;;0.97;0.30;;;12.80;99.90;;;;;;5136690;27;20892;-69
2024/01/02 09:42:27;;;;;;;0.50;0.40;;;12.80;99.90;;;;;;5136517;27;20879;-69
2024/01/02 09:45:03;;;;;;;0.50;0.30;;;12.80;99.90;;;;;;5136852;27;20504;-69
2024/01/02 09:47:58;;;;;;;0.40;0.40;;;12.80;99.90;;;;;;5118409;27;20446;-69
2024/01/02 09:50:33;;;;;;;0.70;0.33;;;12.80;99.90;;;;;;5135879;27;20454;-69
2024/01/02 09:53:35;;;;;;;0.43;0.30;;;12.80;99.90;;;;;;5139476;27;20465;-69
2024/01/02 09:56:10;;;;;;;0.30;0.30;;;12.80;99.90;;;;;;5138321;27;20457;-69
2024/01/02 09:58:45;;;;;;;0.63;0.30;;;12.80;99.90;;;;;;5139057;27;20422;-68
2024/01/02 10:01:23;;;;;;;0.30;0.20;;;12.90;99.90;;;;;;5120227;27;20457;-69
2024/01/02 10:04:30;;;;;;;0.40;0.30;;;12.90;99.90;;;;;;5137229;27;20923;-69
2024/01/02 10:07:25;;;;;;;0.53;0.40;;;12.90;99.90;;;;;;5137694;27;20499;-69
2024/01/02 10:10:07;;;;;;;0.30;0.20;;;12.90;99.90;;;;;;5136040;27;20450;-69
2024/01/02 10:12:57;;;;;;;2.60;0.40;;;12.90;99.90;;;;;;5135985;27;20944;-69
2024/01/02 10:15:29;;;;;;;1.37;0.20;;;13.00;99.90;;;;;;5135897;27;20429;-69
2024/01/02 10:18:04;;;;;;;0.40;0.30;;;13.00;99.90;;;;;;5136300;27;20487;-69
2024/01/02 10:20:42;;;;;;;0.50;0.30;;;13.00;99.90;;;;;;5136103;27;20481;-69
2024/01/02 10:23:22;;;;;;;0.40;0.30;;;13.10;99.90;;;;;;5117725;27;20438;-69
2024/01/02 10:25:57;;;;;;;0.30;0.30;;;13.10;99.90;;;;;;5117811;27;20429;-69
2024/01/02 10:28:27;;;;;;;2.30;1.07;;;13.00;99.90;;;;;;5117770;27;20437;-69
2024/01/02 10:31:03;;;;;;;1.23;0.40;;;13.00;99.90;;;;;;5134840;27;20502;-69
2024/01/02 10:33:35;;;;;;;0.30;0.30;;;13.10;99.90;;;;;;5135805;27;20429;-69
2024/01/02 10:36:04;;;;;;;0.43;0.20;;;13.20;99.90;;;;;;5118107;27;20418;-69
2024/01/02 10:38:43;;;;;;;0.30;0.20;;;13.10;99.90;;;;;;5135518;27;20886;-69
2024/01/02 10:41:22;;;;;;;0.77;0.20;;;13.10;99.90;;;;;;5135776;27;20485;-69
2024/01/02 10:44:00;;;;;;;0.40;0.30;;;13.00;99.90;;;;;;5135987;27;20429;-69
2024/01/02 10:46:36;;;;;;;0.83;0.30;;;13.00;99.90;;;;;;5135190;27;20442;-69
2024/01/02 10:49:13;;;;;;;0.77;0.37;;;13.00;99.90;;;;;;5135251;27;20915;-69
2024/01/02 10:51:41;;;;;;;2.80;0.30;;;12.90;99.90;;;;;;5134982;27;20450;-69
2024/01/02 10:54:19;;;;;;;3.50;0.50;;;13.00;99.90;;;;;;5135402;27;20446;-69
2024/01/02 10:56:55;;;;;;;0.40;0.30;;;13.00;99.90;;;;;;5135985;27;20453;-69
2024/01/02 10:59:37;;;;;;;0.60;0.30;;;12.90;99.90;;;;;;5137341;27;20485;-69
2024/01/02 11:02:12;;;;;;;0.47;0.30;;;12.90;99.90;;;;;;5138941;27;20430;-68
2024/01/02 11:04:51;;;;;;;0.97;0.30;;;12.80;99.90;;;;;;5143644;27;20728;-69
2024/01/02 11:07:22;;;;;;;0.60;0.30;;;12.80;99.90;;;;;;5142105;27;20467;-69
2024/01/02 11:09:58;;;;;;;0.30;0.30;;;12.80;99.90;;;;;;5141969;27;20466;-68
2024/01/02 11:12:31;;;;;;;0.40;0.30;;;12.70;99.90;;;;;;5141177;27;20449;-68
2024/01/02 11:14:58;;;;;;;0.40;0.37;;;12.60;99.90;;;;;;5141191;27;20432;-68
2024/01/02 11:17:25;;;;;;;0.40;0.30;;;12.60;99.90;;;;;;5139338;27;20445;-68
2024/01/02 11:20:01;;;;;;;0.40;0.30;;;12.50;99.90;;;;;;5139452;27;20549;-68
2024/01/02 11:22:35;;;;;;;0.53;0.40;;;12.50;99.90;;;;;;5139254;27;20896;-68
2024/01/02 11:25:09;;;;;;;0.80;0.30;;;12.50;99.90;;;;;;5138803;27;20545;-68
2024/01/02 11:27:38;;;;;;;0.40;0.30;;;12.50;99.90;;;;;;5138606;27;20426;-67
2024/01/02 11:30:08;;;;;;;0.80;0.40;;;12.50;99.90;;;;;;5137149;27;20480;-68
2024/01/02 11:32:47;;;;;;;0.40;0.20;;;12.50;99.90;;;;;;5137398;27;20426;-68
2024/01/02 11:35:14;;;;;;;0.40;0.37;;;12.50;99.90;;;;;;5136250;27;20463;-68
2024/01/02 11:37:46;;;;;;;1.30;0.40;;;12.50;99.90;;;;;;5135409;27;20927;-68
2024/01/02 11:40:21;;;;;;;0.83;0.30;;;12.50;99.90;;;;;;5135371;27;20486;-68
2024/01/02 11:42:58;;;;;;;0.60;0.40;;;12.40;99.90;;;;;;5134952;27;20851;-68
2024/01/02 11:45:27;;;;;;;0.40;0.27;;;12.50;99.90;;;;;;5135305;27;20429;-67
2024/01/02 11:48:07;;;;;;;1.17;0.30;;;12.40;99.90;;;;;;5140412;27;20442;-67
2024/01/02 11:50:43;;;;;;;0.37;0.30;;;12.50;99.90;;;;;;5138228;27;20470;-68
2024/01/02 11:53:19;;;;;;;0.60;0.33;;;12.50;99.90;;;;;;5136952;27;20426;-67
2024/01/02 11:55:53;;;;;;;6.23;0.40;;;12.50;99.90;;;;;;5135918;28;20461;-67
2024/01/02 11:58:27;;;;;;;1.00;0.40;;;12.40;99.90;;;;;;5136232;28;20437;-67
2024/01/02 12:01:10;;;;;;;0.40;0.30;;;12.40;99.90;;;;;;5134706;28;20572;-68
2024/01/02 12:03:49;;;;;;;0.50;0.30;;;12.30;99.90;;;;;;5135888;28;20426;-67
2024/01/02 12:06:24;;;;;;;1.27;0.30;;;12.40;99.90;;;;;;5135342;28;20433;-67
2024/01/02 12:08:57;;;;;;;1.37;0.30;;;12.40;99.90;;;;;;5135643;28;20421;-67
2024/01/02 12:11:29;;;;;;;0.40;0.30;;;12.30;99.90;;;;;;5134954;28;20429;-68
2024/01/02 12:14:09;;;;;;;0.40;0.30;;;12.30;99.90;;;;;;5134887;28;20422;-67
2024/01/02 12:16:39;;;;;;;1.17;0.40;;;12.30;99.90;;;;;;5134837;28;20418;-67
2024/01/02 12:19:09;;;;;;;2.00;0.30;;;12.20;99.90;;;;;;5134716;28;20444;-68
2024/01/02 12:21:39;;;;;;;0.43;0.40;;;12.20;99.90;;;;;;5134751;28;20807;-67
2024/01/02 12:24:07;;;;;;;0.40;0.30;;;12.20;99.90;;;;;;5134328;28;20434;-67
2024/01/02 12:26:39;;;;;;;0.40;0.30;;;12.10;99.90;;;;;;5116014;28;20961;-67
2024/01/02 12:29:07;;;;;;;0.60;0.30;;;12.20;99.90;;;;;;5134804;28;20422;-67
2024/01/02 12:31:41;;;;;;;0.80;0.40;;;12.10;99.90;;;;;;5134424;28;20433;-67
2024/01/02 12:34:20;;;;;;;0.60;0.40;;;12.10;99.90;;;;;;5134604;28;20432;-67
2024/01/02 12:36:48;;;;;;;2.50;0.53;;;12.10;99.90;;;;;;5134030;28;20778;-67
2024/01/02 12:39:17;;;;;;;1.13;0.40;;;12.10;99.90;;;;;;5134581;28;20466;-67
2024/01/02 12:41:51;;;;;;;0.50;0.30;;;12.10;99.90;;;;;;5134496;28;20478;-67
2024/01/02 12:44:19;;;;;;;1.33;0.67;;;12.00;99.90;;;;;;5134551;28;20427;-67
2024/01/02 12:46:50;;;;;;;2.60;0.93;;;12.00;99.90;;;;;;5134191;28;20449;-67
2024/01/02 12:49:19;;;;;;;0.50;0.30;;;11.90;99.90;;;;;;5134006;28;21035;-67
2024/01/02 12:51:47;;;;;;;0.60;0.40;;;11.80;99.90;;;;;;5134068;28;20462;-67
2024/01/02 12:54:18;;;;;;;0.40;0.30;;;11.80;99.90;;;;;;5137357;27;20446;-67
2024/01/02 12:56:54;;;;;;;1.30;0.50;;;11.80;99.90;;;;;;5137966;27;20449;-68
2024/01/02 12:59:21;;;;;;;0.80;0.30;;;11.80;99.90;;;;;;5137851;27;20544;-68